Time;durP1;ratioP1;P1;durP2;ratioP2;P2;SDS_P1;SDS_P2;PMS_P1;PMS_P2;Temp;Humidity;BMP_temperature;BMP_pressure;BME280_temperature;BME280_humidity;BME280_pressure;Samples;Min_cycle;Max_cycle;Signal;HPM_P1;HPM_P2
2023/09/30 00:02:03;;;;;;;11.30;3.00;;;;;;;;;;4964754;28;20673;-83
2023/09/30 00:04:30;;;;;;;12.97;3.57;;;;;;;;;;4953569;28;20247;-83
2023/09/30 00:06:57;;;;;;;13.03;3.13;;;;;;;;;;4953335;28;20278;-83
2023/09/30 00:09:24;;;;;;;10.77;3.03;;;;;;;;;;4952940;28;20254;-82
2023/09/30 00:11:52;;;;;;;13.23;3.30;;;;;;;;;;4953574;28;20250;-83
2023/09/30 00:14:20;;;;;;;11.67;3.30;;;;;;;;;;4952879;28;20203;-83
2023/09/30 00:16:47;;;;;;;15.57;3.03;;;;;;;;;;4953294;28;20242;-82
2023/09/30 00:19:15;;;;;;;12.07;3.30;;;;;;;;;;4969063;28;20206;-84
2023/09/30 00:21:42;;;;;;;11.93;3.93;;;;;;;;;;4970280;28;20289;-82
2023/09/30 00:24:09;;;;;;;10.30;3.47;;;;;;;;;;4969302;28;20644;-83
2023/09/30 00:26:37;;;;;;;10.33;3.60;;;;;;;;;;4972464;28;20292;-83
2023/09/30 00:29:04;;;;;;;11.03;4.17;;;;;;;;;;4972100;28;20202;-83
2023/09/30 00:31:33;;;;;;;13.63;3.93;;;;;;;;;;4972168;28;20801;-83
2023/09/30 00:34:01;;;;;;;11.23;3.60;;;;;;;;;;4972048;28;20303;-83
2023/09/30 00:36:28;;;;;;;10.40;3.43;;;;;;;;;;4972159;28;20194;-82
2023/09/30 00:38:55;;;;;;;12.20;3.50;;;;;;;;;;4971543;28;20289;-82
2023/09/30 00:41:22;;;;;;;13.87;3.30;;;;;;;;;;4980421;28;20696;-83
2023/09/30 00:43:49;;;;;;;10.47;3.40;;;;;;;;;;4991572;28;20639;-82
2023/09/30 00:46:20;;;;;;;10.80;3.50;;;;;;;;;;4991577;28;20221;-83
2023/09/30 00:48:49;;;;;;;7.20;2.60;;;;;;;;;;4971870;28;20202;-83
2023/09/30 00:51:16;;;;;;;21.63;3.87;;;;;;;;;;4971585;28;20290;-83
2023/09/30 00:53:43;;;;;;;12.40;3.43;;;;;;;;;;4972546;28;20203;-83
2023/09/30 00:56:11;;;;;;;13.17;2.80;;;;;;;;;;4972078;28;20297;-83
2023/09/30 00:58:39;;;;;;;11.00;3.20;;;;;;;;;;4971981;28;20289;-83
2023/09/30 01:01:07;;;;;;;8.63;2.80;;;;;;;;;;4972040;28;20274;-83
2023/09/30 01:03:35;;;;;;;9.73;2.77;;;;;;;;;;4972371;28;20258;-83
2023/09/30 01:06:03;;;;;;;10.57;2.43;;;;;;;;;;4971440;28;20205;-83
2023/09/30 01:08:31;;;;;;;12.10;3.00;;;;;;;;;;4974404;28;20320;-82
2023/09/30 01:10:58;;;;;;;10.10;2.77;;;;;;;;;;4975815;28;20290;-83
2023/09/30 01:13:33;;;;;;;9.43;2.30;;;;;;;;;;4975725;28;20245;-83
2023/09/30 01:16:00;;;;;;;14.60;3.10;;;;;;;;;;4975799;28;20198;-83
2023/09/30 01:18:27;;;;;;;10.77;3.50;;;;;;;;;;4984997;28;20205;-83
2023/09/30 01:20:55;;;;;;;15.67;2.77;;;;;;;;;;4995018;28;20249;-83
2023/09/30 01:23:24;;;;;;;9.10;3.20;;;;;;;;;;4995217;28;20319;-83
2023/09/30 01:25:51;;;;;;;14.23;3.03;;;;;;;;;;4994760;28;20241;-84
2023/09/30 01:28:18;;;;;;;9.20;2.77;;;;;;;;;;4994646;28;20226;-83
2023/09/30 01:30:45;;;;;;;10.10;2.87;;;;;;;;;;4994773;28;20292;-83
2023/09/30 01:33:12;;;;;;;12.67;3.10;;;;;;;;;;4995013;28;20197;-83
2023/09/30 01:35:40;;;;;;;13.63;3.20;;;;;;;;;;4994373;28;20198;-83
2023/09/30 01:38:07;;;;;;;12.03;2.60;;;;;;;;;;4994311;28;20272;-83
2023/09/30 01:40:37;;;;;;;7.07;2.90;;;;;;;;;;4994473;28;20315;-83
2023/09/30 01:43:04;;;;;;;9.13;2.60;;;;;;;;;;4994973;28;20209;-83
2023/09/30 01:45:31;;;;;;;12.63;2.97;;;;;;;;;;4994174;28;20698;-82
2023/09/30 01:47:59;;;;;;;10.87;2.77;;;;;;;;;;4994429;28;20221;-83
2023/09/30 01:50:26;;;;;;;12.60;2.90;;;;;;;;;;4994077;28;20262;-83
2023/09/30 01:52:53;;;;;;;11.40;3.00;;;;;;;;;;4994930;28;20218;-83
2023/09/30 01:55:20;;;;;;;10.17;2.67;;;;;;;;;;4991000;28;20297;-82
2023/09/30 01:57:49;;;;;;;10.20;2.30;;;;;;;;;;4983684;28;20249;-83
2023/09/30 02:00:17;;;;;;;9.90;2.70;;;;;;;;;;4974324;28;20672;-84
2023/09/30 02:02:44;;;;;;;8.60;2.80;;;;;;;;;;4974890;28;20582;-84
2023/09/30 02:05:11;;;;;;;9.10;2.80;;;;;;;;;;4974412;28;20301;-83
2023/09/30 02:07:38;;;;;;;8.30;2.70;;;;;;;;;;4974756;28;20238;-82
2023/09/30 02:10:07;;;;;;;11.10;2.93;;;;;;;;;;4974547;28;20249;-83
2023/09/30 02:12:34;;;;;;;10.30;2.70;;;;;;;;;;4985214;28;20270;-83
2023/09/30 02:15:04;;;;;;;10.93;2.50;;;;;;;;;;4975143;28;20216;-83
2023/09/30 02:17:31;;;;;;;11.90;2.70;;;;;;;;;;4976797;28;20231;-83
2023/09/30 02:20:01;;;;;;;14.03;3.03;;;;;;;;;;4992670;28;20660;-83
2023/09/30 02:22:29;;;;;;;9.30;2.33;;;;;;;;;;4993609;28;20269;-82
2023/09/30 02:24:56;;;;;;;11.63;3.00;;;;;;;;;;4993697;28;20256;-83
2023/09/30 02:27:23;;;;;;;10.37;3.00;;;;;;;;;;4993510;28;20661;-83
2023/09/30 02:29:50;;;;;;;10.77;2.80;;;;;;;;;;4993695;28;20206;-83
2023/09/30 02:32:19;;;;;;;13.07;3.07;;;;;;;;;;4993560;28;20202;-83
2023/09/30 02:34:47;;;;;;;11.13;2.83;;;;;;;;;;4993223;28;20228;-83
2023/09/30 02:37:14;;;;;;;9.67;2.40;;;;;;;;;;4993361;28;20244;-83
2023/09/30 02:39:43;;;;;;;9.67;2.67;;;;;;;;;;4993634;28;20256;-83
2023/09/30 02:42:10;;;;;;;11.30;2.83;;;;;;;;;;4993427;28;20280;-83
2023/09/30 02:44:37;;;;;;;10.37;2.60;;;;;;;;;;4993268;28;20664;-83
2023/09/30 02:47:04;;;;;;;11.27;2.60;;;;;;;;;;4993264;28;20264;-83
2023/09/30 02:49:35;;;;;;;8.40;2.43;;;;;;;;;;4993208;28;20672;-83
2023/09/30 02:52:02;;;;;;;10.50;2.67;;;;;;;;;;4993346;28;20284;-83
2023/09/30 02:54:32;;;;;;;11.30;2.83;;;;;;;;;;4993512;28;20205;-83
2023/09/30 02:57:00;;;;;;;5.67;2.30;;;;;;;;;;4992949;28;20241;-83
2023/09/30 02:59:27;;;;;;;11.17;3.30;;;;;;;;;;4993198;28;20281;-83
2023/09/30 03:01:54;;;;;;;10.30;2.80;;;;;;;;;;4992402;28;20328;-83
2023/09/30 03:04:24;;;;;;;8.07;2.87;;;;;;;;;;4992878;28;20626;-83
2023/09/30 03:06:52;;;;;;;12.57;2.80;;;;;;;;;;4993077;28;20202;-83
2023/09/30 03:09:20;;;;;;;8.90;2.70;;;;;;;;;;4993018;28;20313;-83
2023/09/30 03:11:48;;;;;;;11.03;2.67;;;;;;;;;;4993002;28;20206;-83
2023/09/30 03:14:15;;;;;;;7.83;2.47;;;;;;;;;;4992643;28;20205;-84
2023/09/30 03:16:44;;;;;;;10.00;2.97;;;;;;;;;;4992449;28;20236;-83
2023/09/30 03:19:11;;;;;;;14.83;2.77;;;;;;;;;;4992605;28;20206;-82
2023/09/30 03:21:39;;;;;;;8.30;2.60;;;;;;;;;;4992489;28;20309;-82
2023/09/30 03:24:08;;;;;;;11.60;2.90;;;;;;;;;;4993010;28;20234;-83
2023/09/30 03:26:36;;;;;;;10.67;2.77;;;;;;;;;;4992706;28;20281;-83
2023/09/30 03:29:05;;;;;;;12.53;3.17;;;;;;;;;;4992318;28;20569;-83
2023/09/30 03:31:32;;;;;;;11.47;2.90;;;;;;;;;;4990871;28;20202;-83
2023/09/30 03:34:00;;;;;;;9.73;3.10;;;;;;;;;;4992582;28;20237;-83
2023/09/30 03:36:27;;;;;;;11.30;3.20;;;;;;;;;;4992799;28;20201;-83
2023/09/30 03:38:58;;;;;;;9.37;3.20;;;;;;;;;;4992442;28;20202;-83
2023/09/30 03:41:28;;;;;;;13.07;3.30;;;;;;;;;;4992478;28;20320;-83
2023/09/30 03:43:55;;;;;;;11.63;3.17;;;;;;;;;;4991964;28;20229;-83
2023/09/30 03:46:22;;;;;;;9.43;3.20;;;;;;;;;;4991818;28;20296;-83
2023/09/30 03:48:50;;;;;;;10.97;2.90;;;;;;;;;;4992236;28;20301;-83
2023/09/30 03:51:17;;;;;;;10.47;3.50;;;;;;;;;;4992182;28;20569;-82
2023/09/30 03:53:44;;;;;;;11.57;2.97;;;;;;;;;;4992221;28;20252;-83
2023/09/30 03:56:13;;;;;;;12.30;3.70;;;;;;;;;;4992025;28;20669;-83
2023/09/30 03:58:42;;;;;;;9.47;3.20;;;;;;;;;;4992127;28;20201;-83
2023/09/30 04:01:11;;;;;;;12.47;3.20;;;;;;;;;;4991621;28;20236;-83
2023/09/30 04:03:39;;;;;;;11.73;3.70;;;;;;;;;;4991983;28;20213;-83
2023/09/30 04:06:07;;;;;;;11.10;3.00;;;;;;;;;;4991929;28;20225;-83
2023/09/30 04:08:35;;;;;;;10.47;3.10;;;;;;;;;;4991958;28;20202;-82
2023/09/30 04:11:02;;;;;;;13.70;3.20;;;;;;;;;;4992613;28;20202;-82
2023/09/30 04:13:33;;;;;;;12.37;3.23;;;;;;;;;;4991732;28;20296;-82
2023/09/30 04:16:02;;;;;;;10.63;3.07;;;;;;;;;;4991629;28;20209;-83
2023/09/30 04:18:30;;;;;;;12.23;3.43;;;;;;;;;;4991982;28;20206;-83
2023/09/30 04:20:57;;;;;;;14.30;3.50;;;;;;;;;;4991741;28;20217;-82
2023/09/30 04:23:25;;;;;;;10.10;3.57;;;;;;;;;;4991776;28;20328;-83
2023/09/30 04:25:52;;;;;;;12.70;4.03;;;;;;;;;;4991621;28;20754;-82
2023/09/30 04:28:20;;;;;;;10.40;3.37;;;;;;;;;;4991517;28;20229;-82
2023/09/30 04:30:49;;;;;;;8.00;3.20;;;;;;;;;;4991484;28;20206;-82
2023/09/30 04:33:19;;;;;;;11.20;3.50;;;;;;;;;;4991622;28;20285;-83
2023/09/30 04:35:47;;;;;;;10.87;3.77;;;;;;;;;;4991675;28;20240;-82
2023/09/30 04:38:14;;;;;;;9.00;2.87;;;;;;;;;;4991714;28;20289;-82
2023/09/30 04:40:43;;;;;;;9.60;3.70;;;;;;;;;;4991737;28;20232;-83
2023/09/30 04:43:10;;;;;;;10.30;3.50;;;;;;;;;;4993956;28;20217;-83
2023/09/30 04:45:38;;;;;;;12.23;3.13;;;;;;;;;;4995292;28;20617;-82
2023/09/30 04:48:05;;;;;;;9.33;3.33;;;;;;;;;;4995213;28;20321;-83
2023/09/30 04:50:34;;;;;;;10.47;3.57;;;;;;;;;;4995920;28;20285;-82
2023/09/30 04:53:02;;;;;;;10.73;2.80;;;;;;;;;;4995399;28;20288;-83
2023/09/30 04:55:29;;;;;;;12.27;3.47;;;;;;;;;;4995728;28;20206;-83
2023/09/30 04:57:56;;;;;;;9.60;3.47;;;;;;;;;;4995323;28;20232;-82
2023/09/30 05:00:25;;;;;;;9.97;3.27;;;;;;;;;;4995337;28;20197;-82
2023/09/30 05:02:53;;;;;;;12.37;3.53;;;;;;;;;;4995111;28;20229;-83
2023/09/30 05:05:23;;;;;;;11.03;3.13;;;;;;;;;;4995000;28;20202;-83
2023/09/30 05:07:51;;;;;;;11.57;3.60;;;;;;;;;;4995525;28;20201;-82
2023/09/30 05:10:19;;;;;;;9.67;3.33;;;;;;;;;;4995329;28;20233;-82
2023/09/30 05:12:46;;;;;;;8.97;3.50;;;;;;;;;;4994465;28;20645;-82
2023/09/30 05:15:15;;;;;;;13.10;3.60;;;;;;;;;;4994936;28;20778;-82
2023/09/30 05:17:43;;;;;;;14.90;3.53;;;;;;;;;;4994777;28;20201;-82
2023/09/30 05:20:12;;;;;;;10.83;3.97;;;;;;;;;;4994727;28;20695;-82
2023/09/30 05:22:40;;;;;;;11.50;3.83;;;;;;;;;;4994657;28;20242;-82
2023/09/30 05:25:09;;;;;;;13.57;4.50;;;;;;;;;;4994687;28;20285;-81
2023/09/30 05:27:37;;;;;;;13.07;3.73;;;;;;;;;;4994514;28;20581;-82
2023/09/30 05:30:05;;;;;;;11.83;4.17;;;;;;;;;;4994841;28;20233;-83
2023/09/30 05:32:33;;;;;;;14.53;3.90;;;;;;;;;;4994634;28;20606;-82
2023/09/30 05:35:02;;;;;;;11.23;3.63;;;;;;;;;;4994758;28;20237;-83
2023/09/30 05:37:30;;;;;;;14.27;3.90;;;;;;;;;;4994524;28;20744;-82
2023/09/30 05:39:57;;;;;;;11.10;3.77;;;;;;;;;;4994743;28;20213;-82
2023/09/30 05:42:26;;;;;;;11.20;3.73;;;;;;;;;;4994381;28;20225;-83
2023/09/30 05:44:53;;;;;;;9.77;3.67;;;;;;;;;;4994260;28;20647;-81
2023/09/30 05:47:20;;;;;;;12.10;4.70;;;;;;;;;;4994567;28;20202;-82
2023/09/30 05:49:48;;;;;;;14.43;3.93;;;;;;;;;;4994524;28;20221;-82
2023/09/30 05:52:15;;;;;;;12.37;4.00;;;;;;;;;;4994269;28;20653;-82
2023/09/30 05:54:42;;;;;;;12.03;3.73;;;;;;;;;;4993355;28;20635;-82
2023/09/30 05:57:09;;;;;;;12.43;3.90;;;;;;;;;;4994452;28;20236;-82
2023/09/30 05:59:38;;;;;;;9.63;3.67;;;;;;;;;;4994382;28;20304;-82
2023/09/30 06:02:06;;;;;;;11.13;3.93;;;;;;;;;;4993985;28;20252;-82
2023/09/30 06:04:34;;;;;;;11.73;3.80;;;;;;;;;;4994337;28;20732;-82
2023/09/30 06:07:01;;;;;;;10.17;3.73;;;;;;;;;;4994308;28;20205;-82
2023/09/30 06:09:30;;;;;;;12.73;3.80;;;;;;;;;;4993682;28;20673;-82
2023/09/30 06:11:57;;;;;;;12.73;3.50;;;;;;;;;;4993775;28;20201;-83
2023/09/30 06:14:27;;;;;;;10.57;3.30;;;;;;;;;;4994375;28;20230;-82
2023/09/30 06:16:56;;;;;;;11.43;3.90;;;;;;;;;;4993448;28;20198;-83
2023/09/30 06:19:25;;;;;;;12.63;3.80;;;;;;;;;;4993393;28;20241;-82
2023/09/30 06:21:53;;;;;;;10.07;3.90;;;;;;;;;;4993550;28;20838;-82
2023/09/30 06:24:20;;;;;;;9.87;4.00;;;;;;;;;;4975304;28;20291;-83
2023/09/30 06:26:48;;;;;;;10.97;3.70;;;;;;;;;;4973985;28;20280;-82
2023/09/30 06:29:16;;;;;;;9.67;3.50;;;;;;;;;;4974444;28;20198;-82
2023/09/30 06:31:43;;;;;;;11.23;4.13;;;;;;;;;;4974653;28;20552;-82
2023/09/30 06:34:12;;;;;;;10.37;3.80;;;;;;;;;;4974322;28;20205;-82
2023/09/30 06:36:40;;;;;;;9.70;4.13;;;;;;;;;;4974115;28;20210;-82
2023/09/30 06:39:08;;;;;;;6.37;3.27;;;;;;;;;;4973840;28;20194;-82
2023/09/30 06:41:36;;;;;;;9.67;3.90;;;;;;;;;;4973980;28;20237;-83
2023/09/30 06:44:03;;;;;;;11.03;3.70;;;;;;;;;;4973707;28;20704;-83
2023/09/30 06:46:30;;;;;;;11.77;3.50;;;;;;;;;;4973845;28;20211;-83
2023/09/30 06:48:57;;;;;;;10.73;3.87;;;;;;;;;;4973966;28;20298;-84
2023/09/30 06:51:26;;;;;;;10.43;3.67;;;;;;;;;;4974338;28;20639;-80
2023/09/30 06:53:53;;;;;;;14.70;4.67;;;;;;;;;;4973490;28;20736;-80
2023/09/30 06:56:20;;;;;;;8.87;4.03;;;;;;;;;;4973892;28;20293;-80
2023/09/30 06:58:48;;;;;;;10.00;3.63;;;;;;;;;;4973598;28;20712;-80
2023/09/30 07:01:17;;;;;;;6.13;3.13;;;;;;;;;;4974174;28;20198;-80
2023/09/30 07:03:45;;;;;;;8.53;3.13;;;;;;;;;;4974048;28;20199;-80
2023/09/30 07:06:12;;;;;;;7.27;3.10;;;;;;;;;;4973593;28;20222;-81
2023/09/30 07:08:41;;;;;;;6.93;3.00;;;;;;;;;;4973420;28;20289;-81
2023/09/30 07:11:10;;;;;;;6.43;2.83;;;;;;;;;;4973837;28;20199;-81
2023/09/30 07:13:37;;;;;;;11.10;3.33;;;;;;;;;;4973672;28;20206;-81
2023/09/30 07:16:05;;;;;;;8.63;2.97;;;;;;;;;;4973313;28;20345;-81
2023/09/30 07:18:32;;;;;;;7.77;3.17;;;;;;;;;;4973371;28;20215;-80
2023/09/30 07:21:00;;;;;;;6.80;2.93;;;;;;;;;;4973123;28;20289;-81
2023/09/30 07:23:27;;;;;;;9.97;3.70;;;;;;;;;;4983933;28;20340;-80
2023/09/30 07:25:57;;;;;;;8.43;2.97;;;;;;;;;;4993029;28;20691;-80
2023/09/30 07:28:24;;;;;;;7.15;3.20;;;;;;;;;;4992746;28;20208;-81
2023/09/30 07:30:51;;;;;;;10.30;3.25;;;;;;;;;;4992718;28;20288;-81
2023/09/30 07:33:18;;;;;;;6.95;3.05;;;;;;;;;;4992929;28;20209;-81
2023/09/30 07:35:46;;;;;;;10.60;3.40;;;;;;;;;;4993096;28;20204;-81
2023/09/30 07:38:13;;;;;;;10.45;3.40;;;;;;;;;;4993013;28;20281;-82
2023/09/30 07:40:40;;;;;;;10.15;3.80;;;;;;;;;;4992600;28;20197;-82
2023/09/30 07:43:09;;;;;;;9.63;3.60;;;;;;;;;;4992575;28;20260;-82
2023/09/30 07:45:36;;;;;;;11.02;3.58;;;;;;;;;;4992575;28;20240;-83
2023/09/30 07:48:04;;;;;;;10.88;3.53;;;;;;;;;;4992032;28;20293;-82
2023/09/30 07:50:30;;;;;;;10.40;4.13;;;;;;;;;;4992654;28;20190;-82
2023/09/30 07:52:58;;;;;;;8.57;3.67;;;;;;;;;;4991478;28;20252;-82
2023/09/30 07:55:25;;;;;;;11.30;3.60;;;;;;;;;;4992294;28;20257;-82
2023/09/30 07:57:52;;;;;;;8.88;3.80;;;;;;;;;;4992463;28;20305;-82
2023/09/30 08:00:21;;;;;;;9.63;3.60;;;;;;;;;;4992324;28;20292;-82
2023/09/30 08:02:48;;;;;;;11.95;3.80;;;;;;;;;;4991951;28;20712;-83
2023/09/30 08:05:15;;;;;;;8.55;3.28;;;;;;;;;;4992346;28;20197;-82
2023/09/30 08:07:43;;;;;;;9.32;3.20;;;;;;;;;;4991716;28;20210;-82
2023/09/30 08:10:13;;;;;;;10.75;3.90;;;;;;;;;;4992011;28;20198;-83
2023/09/30 08:12:40;;;;;;;11.40;3.50;;;;;;;;;;4992049;28;20193;-85
2023/09/30 08:15:08;;;;;;;10.77;3.72;;;;;;;;;;4991876;28;20197;-85
2023/09/30 08:17:37;;;;;;;11.80;3.72;;;;;;;;;;4990843;28;20213;-83
2023/09/30 08:20:04;;;;;;;9.60;3.35;;;;;;;;;;4991808;28;20225;-83
2023/09/30 08:22:32;;;;;;;7.55;3.35;;;;;;;;;;4991223;28;20241;-86
2023/09/30 08:25:00;;;;;;;7.68;3.42;;;;;;;;;;4991538;28;20201;-84
2023/09/30 08:27:27;;;;;;;8.93;3.63;;;;;;;;;;4992205;28;20253;-84
2023/09/30 08:29:54;;;;;;;8.13;3.35;;;;;;;;;;4988379;28;20201;-85
2023/09/30 08:32:22;;;;;;;8.70;3.65;;;;;;;;;;4990382;28;20245;-85
2023/09/30 08:34:50;;;;;;;8.23;3.83;;;;;;;;;;4985439;28;20207;-84
2023/09/30 08:37:17;;;;;;;10.43;4.05;;;;;;;;;;4986793;28;20296;-84
2023/09/30 08:39:45;;;;;;;8.80;3.60;;;;;;;;;;4985077;28;20618;-85
2023/09/30 08:42:12;;;;;;;10.52;3.92;;;;;;;;;;4974682;28;20296;-85
2023/09/30 08:44:40;;;;;;;8.80;3.70;;;;;;;;;;4973441;28;20233;-84
2023/09/30 08:47:08;;;;;;;7.88;3.72;;;;;;;;;;4991353;28;20244;-85
2023/09/30 08:49:36;;;;;;;10.60;3.95;;;;;;;;;;4983219;28;20206;-86
2023/09/30 08:52:06;;;;;;;9.70;3.78;;;;;;;;;;4991156;28;20202;-85
2023/09/30 08:54:33;;;;;;;10.57;4.38;;;;;;;;;;4993193;28;20202;-85
2023/09/30 08:57:04;;;;;;;10.55;3.67;;;;;;;;;;4992860;28;20245;-86
2023/09/30 08:59:33;;;;;;;7.63;3.63;;;;;;;;;;4993031;28;20685;-86
2023/09/30 09:02:02;;;;;;;8.60;3.67;;;;;;;;;;4993369;28;20210;-86
2023/09/30 09:04:30;;;;;;;9.73;3.83;;;;;;;;;;4992813;28;20229;-87
2023/09/30 09:06:58;;;;;;;10.57;3.88;;;;;;;;;;4993444;28;20209;-86
2023/09/30 09:09:29;;;;;;;7.30;3.67;;;;;;;;;;4992479;28;20284;-87
2023/09/30 09:11:56;;;;;;;11.00;4.32;;;;;;;;;;4980044;28;20265;-86
2023/09/30 09:14:37;;;;;;;9.90;4.22;;;;;;;;;;4980609;28;20243;-86
2023/09/30 09:17:05;;;;;;;9.05;3.83;;;;;;;;;;5011120;28;20283;-86
2023/09/30 09:19:35;;;;;;;10.10;4.38;;;;;;;;;;4986674;28;20293;-86
2023/09/30 09:22:06;;;;;;;7.05;3.78;;;;;;;;;;4990547;28;20233;-86
2023/09/30 09:24:36;;;;;;;10.13;4.45;;;;;;;;;;4989929;28;20242;-85
2023/09/30 09:27:06;;;;;;;9.88;4.32;;;;;;;;;;4989228;28;20742;-84
2023/09/30 09:29:34;;;;;;;8.32;3.47;;;;;;;;;;4994321;28;20220;-86
2023/09/30 09:32:09;;;;;;;8.65;3.80;;;;;;;;;;4994721;28;20214;-86
2023/09/30 09:34:36;;;;;;;10.25;4.40;;;;;;;;;;4994592;28;20204;-86
2023/09/30 09:37:14;;;;;;;9.30;3.92;;;;;;;;;;4994677;28;20573;-86
2023/09/30 09:39:50;;;;;;;9.20;4.30;;;;;;;;;;4994678;28;20223;-86
2023/09/30 09:42:25;;;;;;;11.93;4.85;;;;;;;;;;4995031;28;20208;-85
2023/09/30 09:44:53;;;;;;;10.13;4.10;;;;;;;;;;4994456;28;20197;-86
2023/09/30 09:47:25;;;;;;;7.75;4.13;;;;;;;;;;4994645;28;20261;-86
2023/09/30 09:49:53;;;;;;;8.98;4.20;;;;;;;;;;4994342;28;20276;-86
2023/09/30 09:52:21;;;;;;;10.55;4.75;;;;;;;;;;4994417;28;20202;-86
2023/09/30 09:54:50;;;;;;;8.40;4.00;;;;;;;;;;4994334;28;20249;-85
2023/09/30 09:57:18;;;;;;;7.93;4.32;;;;;;;;;;4994561;28;20625;-86
2023/09/30 09:59:47;;;;;;;11.32;4.63;;;;;;;;;;4994935;28;20289;-86
2023/09/30 10:02:15;;;;;;;10.95;4.57;;;;;;;;;;4994009;28;20217;-87
2023/09/30 10:04:46;;;;;;;8.77;4.45;;;;;;;;;;4994522;28;20240;-86
2023/09/30 10:07:16;;;;;;;9.45;4.10;;;;;;;;;;4994766;28;20305;-86
2023/09/30 10:09:45;;;;;;;9.43;4.10;;;;;;;;;;4994250;28;20198;-86
2023/09/30 10:12:15;;;;;;;10.00;4.55;;;;;;;;;;4994145;28;20277;-86
2023/09/30 10:14:43;;;;;;;10.00;3.78;;;;;;;;;;4994346;28;20221;-86
2023/09/30 10:17:11;;;;;;;12.85;4.55;;;;;;;;;;4993763;28;20197;-87
2023/09/30 10:19:58;;;;;;;7.88;4.35;;;;;;;;;;4975310;28;20214;-87
2023/09/30 10:22:26;;;;;;;9.70;4.78;;;;;;;;;;4974077;28;20226;-86
2023/09/30 10:24:54;;;;;;;9.80;4.40;;;;;;;;;;4989939;28;20268;-87
2023/09/30 10:27:39;;;;;;;9.57;4.55;;;;;;;;;;4994373;28;20209;-86
2023/09/30 10:30:13;;;;;;;11.93;5.20;;;;;;;;;;4993624;28;20649;-87
2023/09/30 10:32:59;;;;;;;10.57;4.20;;;;;;;;;;4994234;28;20201;-87
2023/09/30 10:35:41;;;;;;;8.77;4.50;;;;;;;;;;4994581;28;20605;-87
2023/09/30 10:38:24;;;;;;;10.90;4.22;;;;;;;;;;4993467;28;20668;-86
2023/09/30 10:40:51;;;;;;;8.95;4.55;;;;;;;;;;4992881;28;20218;-87
2023/09/30 10:43:32;;;;;;;10.65;4.78;;;;;;;;;;4994227;28;20254;-86
2023/09/30 10:45:59;;;;;;;9.98;4.75;;;;;;;;;;4993460;28;20264;-87
2023/09/30 10:48:41;;;;;;;9.77;4.35;;;;;;;;;;4989652;28;20694;-87
2023/09/30 10:51:20;;;;;;;10.18;4.50;;;;;;;;;;4990968;28;20210;-88
2023/09/30 10:53:48;;;;;;;8.23;5.15;;;;;;;;;;4994439;28;20712;-88
2023/09/30 10:56:16;;;;;;;11.60;5.07;;;;;;;;;;4994462;28;20652;-88
2023/09/30 10:58:46;;;;;;;9.77;5.00;;;;;;;;;;4993728;28;20213;-90
2023/09/30 11:01:14;;;;;;;10.13;4.93;;;;;;;;;;4992578;28;20210;-88
2023/09/30 11:03:41;;;;;;;10.07;4.78;;;;;;;;;;4982455;28;20317;-88
2023/09/30 11:06:19;;;;;;;17.08;9.73;;;;;;;;;;4992382;28;20207;-89
2023/09/30 11:08:47;;;;;;;10.77;4.75;;;;;;;;;;4994033;28;21023;-90
2023/09/30 11:11:15;;;;;;;10.68;4.72;;;;;;;;;;4994005;28;20648;-91
2023/09/30 11:13:44;;;;;;;8.82;4.38;;;;;;;;;;4994617;28;20630;-87
2023/09/30 11:16:13;;;;;;;9.55;5.03;;;;;;;;;;4994510;28;20206;-89
2023/09/30 11:18:40;;;;;;;10.27;4.78;;;;;;;;;;4991232;28;20213;-88
2023/09/30 11:21:09;;;;;;;9.05;4.45;;;;;;;;;;4974692;28;20668;-87
2023/09/30 11:23:36;;;;;;;9.35;4.88;;;;;;;;;;4974849;28;20686;-92
2023/09/30 11:26:14;;;;;;;8.93;4.20;;;;;;;;;;4975318;28;20240;-91
2023/09/30 11:28:42;;;;;;;10.35;4.85;;;;;;;;;;4975382;28;20206;-92
2023/09/30 11:31:11;;;;;;;8.23;5.15;;;;;;;;;;4986734;28;20653;-92
2023/09/30 11:34:09;;;;;;;13.10;9.25;;;;;;;;;;4992469;28;20657;-91
2023/09/30 11:36:49;;;;;;;10.43;5.82;;;;;;;;;;4994683;28;20645;-90
2023/09/30 11:39:24;;;;;;;10.10;5.53;;;;;;;;;;4981905;28;20210;-92
2023/09/30 11:41:52;;;;;;;10.13;5.22;;;;;;;;;;4988243;28;20228;-90
2023/09/30 11:44:19;;;;;;;10.45;4.65;;;;;;;;;;4994135;28;20750;-91
2023/09/30 11:46:52;;;;;;;9.25;4.68;;;;;;;;;;4994700;28;20216;-92
2023/09/30 11:49:28;;;;;;;10.10;5.10;;;;;;;;;;4998616;28;20338;-92
2023/09/30 11:51:56;;;;;;;12.57;4.88;;;;;;;;;;4995882;28;20197;-92
2023/09/30 11:54:41;;;;;;;12.60;5.90;;;;;;;;;;5001058;28;20198;-91
2023/09/30 11:57:09;;;;;;;10.15;5.32;;;;;;;;;;4996368;28;20249;-89
2023/09/30 11:59:37;;;;;;;10.02;5.15;;;;;;;;;;4993845;28;20664;-93
2023/09/30 12:02:22;;;;;;;10.00;5.13;;;;;;;;;;4993863;28;20229;-89
2023/09/30 12:04:50;;;;;;;7.95;4.80;;;;;;;;;;4993748;28;20738;-90
2023/09/30 12:07:24;;;;;;;9.55;4.68;;;;;;;;;;4994062;28;20205;-88
2023/09/30 12:09:58;;;;;;;11.13;5.38;;;;;;;;;;4993417;28;20217;-92
2023/09/30 12:12:25;;;;;;;9.85;5.32;;;;;;;;;;4991362;28;20762;-91
2023/09/30 12:14:54;;;;;;;8.70;4.63;;;;;;;;;;4977850;28;20220;-92
2023/09/30 12:17:22;;;;;;;11.18;5.47;;;;;;;;;;4993607;28;20198;-93
2023/09/30 12:19:57;;;;;;;11.70;5.30;;;;;;;;;;4982333;28;20621;-92
2023/09/30 12:22:37;;;;;;;9.73;5.30;;;;;;;;;;4993970;28;20204;-92
2023/09/30 12:25:08;;;;;;;9.82;5.32;;;;;;;;;;4955176;29;20676;-90
2023/09/30 12:27:39;;;;;;;10.90;5.13;;;;;;;;;;4954126;29;20230;-89
2023/09/30 12:30:07;;;;;;;10.13;5.35;;;;;;;;;;4954530;29;20662;-89
2023/09/30 12:32:35;;;;;;;10.57;5.13;;;;;;;;;;4964452;28;20253;-91
2023/09/30 12:35:04;;;;;;;8.95;4.97;;;;;;;;;;4972556;28;20218;-89
2023/09/30 12:37:32;;;;;;;12.00;5.30;;;;;;;;;;4977901;28;20653;-91
2023/09/30 12:39:59;;;;;;;13.20;5.30;;;;;;;;;;4975902;28;20654;-88
2023/09/30 12:42:28;;;;;;;10.73;5.05;;;;;;;;;;4975813;28;20257;-86
2023/09/30 12:44:55;;;;;;;12.02;5.45;;;;;;;;;;4973690;28;20220;-87
2023/09/30 12:47:22;;;;;;;12.10;5.45;;;;;;;;;;4972925;28;20205;-88
2023/09/30 12:49:49;;;;;;;9.60;5.15;;;;;;;;;;4973311;28;20248;-87
2023/09/30 12:52:36;;;;;;;;;;;;;;;;;;;;;
2023/09/30 12:55:04;;;;;;;8.48;4.50;;;;;;;;;;4972310;28;20209;-88
2023/09/30 12:57:37;;;;;;;11.25;5.22;;;;;;;;;;4972969;28;20203;-90
2023/09/30 13:00:09;;;;;;;11.98;4.90;;;;;;;;;;4955317;28;20215;-87
2023/09/30 13:02:39;;;;;;;11.65;5.60;;;;;;;;;;4963214;28;20300;-89
2023/09/30 13:05:07;;;;;;;10.40;5.38;;;;;;;;;;4996440;28;20268;-89
2023/09/30 13:07:36;;;;;;;10.35;5.55;;;;;;;;;;4996341;28;20786;-89
2023/09/30 13:10:05;;;;;;;9.75;4.63;;;;;;;;;;4996782;28;20245;-89
2023/09/30 13:12:33;;;;;;;9.00;5.28;;;;;;;;;;4996294;28;20194;-87
2023/09/30 13:15:01;;;;;;;10.23;5.20;;;;;;;;;;4996232;28;20669;-89
2023/09/30 13:17:28;;;;;;;9.07;5.22;;;;;;;;;;4994420;28;20751;-87
2023/09/30 13:19:56;;;;;;;10.50;5.18;;;;;;;;;;4977007;28;20257;-88
2023/09/30 13:22:23;;;;;;;10.45;5.38;;;;;;;;;;4977118;28;20265;-88
2023/09/30 13:24:52;;;;;;;12.57;5.93;;;;;;;;;;4996010;28;20325;-87
2023/09/30 13:27:32;;;;;;;11.55;5.40;;;;;;;;;;4996178;28;20307;-88
2023/09/30 13:30:01;;;;;;;12.63;5.45;;;;;;;;;;4996044;28;20220;-89
2023/09/30 13:32:32;;;;;;;9.65;5.35;;;;;;;;;;4996184;28;20209;-89
2023/09/30 13:35:00;;;;;;;11.13;5.38;;;;;;;;;;4995829;28;20213;-88
2023/09/30 13:37:31;;;;;;;12.65;4.90;;;;;;;;;;4995844;28;20306;-88
2023/09/30 13:40:00;;;;;;;11.00;5.28;;;;;;;;;;4995280;28;20198;-88
2023/09/30 13:42:28;;;;;;;10.93;5.05;;;;;;;;;;4995665;28;20293;-88
2023/09/30 13:44:57;;;;;;;11.02;5.18;;;;;;;;;;4995481;28;20232;-88
2023/09/30 13:47:25;;;;;;;11.85;5.15;;;;;;;;;;4995764;28;20209;-89
2023/09/30 13:49:52;;;;;;;9.13;5.03;;;;;;;;;;4996114;28;20201;-88
2023/09/30 13:52:19;;;;;;;13.55;5.53;;;;;;;;;;4995558;28;20272;-88
2023/09/30 13:54:47;;;;;;;10.10;5.25;;;;;;;;;;4995258;28;20671;-89
2023/09/30 13:57:15;;;;;;;10.23;5.00;;;;;;;;;;4995814;28;20237;-89
2023/09/30 13:59:43;;;;;;;11.85;5.35;;;;;;;;;;4995736;28;20244;-88
2023/09/30 14:02:13;;;;;;;9.93;5.25;;;;;;;;;;4995642;28;20225;-89
2023/09/30 14:04:40;;;;;;;11.15;5.13;;;;;;;;;;4995463;28;20233;-89
2023/09/30 14:07:08;;;;;;;11.40;5.32;;;;;;;;;;4995693;28;20206;-89
2023/09/30 14:09:36;;;;;;;9.75;5.47;;;;;;;;;;4995714;28;20623;-89
2023/09/30 14:12:11;;;;;;;9.55;5.60;;;;;;;;;;4995816;28;20198;-90
2023/09/30 14:14:48;;;;;;;9.93;5.60;;;;;;;;;;4995308;28;20209;-89
2023/09/30 14:17:16;;;;;;;13.95;6.00;;;;;;;;;;4995658;28;20285;-89
2023/09/30 14:19:44;;;;;;;9.50;5.32;;;;;;;;;;4981660;28;20265;-89
2023/09/30 14:22:11;;;;;;;11.20;5.43;;;;;;;;;;4979775;28;20202;-90
2023/09/30 14:24:39;;;;;;;10.50;5.78;;;;;;;;;;4975571;28;20242;-89
2023/09/30 14:27:07;;;;;;;9.60;5.63;;;;;;;;;;4976297;28;20620;-89
2023/09/30 14:29:38;;;;;;;9.75;5.80;;;;;;;;;;4976158;28;20765;-89
2023/09/30 14:32:07;;;;;;;9.85;5.60;;;;;;;;;;4975827;28;20206;-88
2023/09/30 14:34:37;;;;;;;11.63;5.55;;;;;;;;;;4975858;28;20226;-89
2023/09/30 14:37:04;;;;;;;9.50;5.55;;;;;;;;;;4975455;28;20635;-89
2023/09/30 14:39:31;;;;;;;11.38;5.60;;;;;;;;;;4975249;28;20268;-87
2023/09/30 14:42:05;;;;;;;12.45;5.55;;;;;;;;;;4974646;28;20674;-88
2023/09/30 14:44:33;;;;;;;11.27;5.60;;;;;;;;;;4975416;28;20262;-88
2023/09/30 14:47:04;;;;;;;9.70;5.40;;;;;;;;;;4975621;28;20210;-89